createdAt,value
2022-08-22T00:00:42.901Z,0.00
2022-08-22T00:01:39.779Z,0.00
2022-08-22T00:02:39.850Z,0.00
2022-08-22T00:02:43.289Z,0.00
2022-08-22T00:02:53.534Z,0.00
2022-08-22T00:02:54.995Z,0.00
2022-08-22T00:02:59.906Z,0.00
2022-08-22T00:03:00.127Z,0.00
2022-08-22T00:03:04.348Z,0.00
2022-08-22T00:03:11.075Z,0.00
2022-08-22T00:03:39.832Z,0.00
2022-08-22T00:04:39.858Z,0.00
2022-08-22T00:05:39.882Z,0.00
2022-08-22T00:06:39.910Z,0.00
2022-08-22T00:07:39.939Z,0.00
2022-08-22T00:08:40.008Z,0.00
2022-08-22T00:09:39.991Z,0.00
2022-08-22T00:10:40.020Z,0.00
2022-08-22T00:11:40.046Z,0.00
2022-08-22T00:12:40.068Z,0.00
2022-08-22T00:13:40.096Z,0.00
2022-08-22T00:14:40.132Z,0.00
2022-08-22T00:15:43.444Z,0.00
2022-08-22T00:16:40.178Z,0.00
2022-08-22T00:17:40.205Z,0.00
2022-08-22T00:18:40.229Z,0.00
2022-08-22T00:19:40.256Z,0.00
2022-08-22T00:20:40.286Z,0.00
2022-08-22T00:21:40.306Z,0.00
2022-08-22T00:22:40.363Z,0.00
2022-08-22T00:23:40.366Z,0.00
2022-08-22T00:24:40.391Z,0.00
2022-08-22T00:25:40.418Z,0.00
2022-08-22T00:26:45.113Z,0.00
2022-08-22T00:27:43.717Z,0.00
2022-08-22T00:28:40.499Z,0.00
2022-08-22T00:29:40.526Z,0.00
2022-08-22T00:30:40.550Z,0.00
2022-08-22T00:31:40.576Z,0.00
2022-08-22T00:32:40.604Z,0.00
2022-08-22T00:33:40.630Z,0.00
2022-08-22T00:34:40.656Z,0.00
2022-08-22T00:35:47.852Z,0.00
2022-08-22T00:37:45.177Z,0.00
2022-08-22T00:38:44.729Z,0.00
2022-08-22T00:40:38.209Z,0.00
2022-08-22T00:41:37.689Z,0.00
2022-08-22T00:43:41.710Z,0.00
2022-08-22T00:44:41.749Z,0.00
2022-08-22T00:46:46.221Z,0.00
2022-08-22T00:47:45.775Z,0.00
2022-08-22T00:49:50.261Z,0.00
2022-08-22T00:50:49.817Z,0.00
2022-08-22T00:52:53.829Z,0.00
2022-08-22T00:53:53.851Z,0.00
2022-08-22T00:55:58.344Z,0.00
2022-08-22T00:56:57.887Z,0.00
2022-08-22T00:59:18.026Z,0.00
2022-08-22T01:00:01.931Z,0.00
2022-08-22T01:02:06.428Z,0.00
2022-08-22T01:03:05.970Z,0.00
2022-08-22T01:05:10.012Z,0.00
2022-08-22T01:06:10.032Z,0.00
2022-08-22T01:08:14.531Z,0.00
2022-08-22T01:09:14.074Z,0.00
2022-08-22T01:11:18.093Z,0.00
2022-08-22T01:12:18.115Z,0.00
2022-08-22T01:14:34.569Z,0.00
2022-08-22T01:15:22.151Z,0.00
2022-08-22T01:17:26.653Z,0.00
2022-08-22T01:18:26.195Z,0.00
2022-08-22T01:20:19.136Z,0.00
2022-08-22T01:21:20.800Z,0.00
2022-08-22T01:23:23.649Z,0.00
2022-08-22T01:24:24.171Z,0.00
2022-08-22T01:26:16.826Z,0.00
2022-08-22T01:27:16.848Z,0.00
2022-08-22T01:28:16.869Z,0.00
2022-08-22T01:29:16.900Z,0.00
2022-08-22T01:30:16.920Z,0.00
2022-08-22T01:31:16.948Z,0.00
2022-08-22T01:32:16.974Z,0.00
2022-08-22T01:33:17.004Z,0.00
2022-08-22T01:34:17.027Z,0.00
2022-08-22T01:35:17.053Z,0.00
2022-08-22T01:36:17.079Z,0.00
2022-08-22T01:37:17.109Z,0.00
2022-08-22T01:38:17.134Z,0.00
2022-08-22T01:39:17.158Z,0.00
2022-08-22T01:40:17.218Z,0.00
2022-08-22T01:41:17.212Z,0.00
2022-08-22T01:42:17.244Z,0.00
2022-08-22T01:43:17.263Z,0.00
2022-08-22T01:44:17.290Z,0.00
2022-08-22T01:45:17.321Z,0.00
2022-08-22T01:46:20.745Z,0.00
2022-08-22T01:47:17.365Z,0.00
2022-08-22T01:48:17.393Z,0.00
2022-08-22T01:49:17.421Z,0.00
2022-08-22T01:50:17.449Z,0.00
2022-08-22T01:51:17.474Z,0.00
2022-08-22T01:52:19.492Z,0.00
2022-08-22T01:53:17.523Z,0.00
2022-08-22T01:54:17.550Z,0.00
2022-08-22T01:55:17.574Z,0.00
2022-08-22T01:56:17.602Z,0.00
2022-08-22T01:57:17.628Z,0.00
2022-08-22T01:58:17.657Z,0.00
2022-08-22T01:59:17.732Z,0.00
2022-08-22T02:00:17.706Z,0.00
2022-08-22T02:01:17.781Z,0.00
2022-08-22T02:02:17.759Z,0.00
2022-08-22T02:03:17.784Z,0.00
2022-08-22T02:04:17.811Z,0.00
2022-08-22T02:05:17.837Z,0.00
2022-08-22T02:06:17.862Z,0.00
2022-08-22T02:07:17.890Z,0.00
2022-08-22T02:08:17.914Z,0.00
2022-08-22T02:09:17.942Z,0.00
2022-08-22T02:10:17.966Z,0.00
2022-08-22T02:11:17.994Z,0.00
2022-08-22T02:12:21.583Z,0.00
2022-08-22T02:13:18.047Z,0.00
2022-08-22T02:14:18.071Z,0.00
2022-08-22T02:15:18.097Z,0.00
2022-08-22T02:16:18.121Z,0.00
2022-08-22T02:17:18.148Z,0.00
2022-08-22T02:18:18.181Z,0.00
2022-08-22T02:19:18.201Z,0.00
2022-08-22T02:20:18.231Z,0.00
2022-08-22T02:21:18.253Z,0.00
2022-08-22T02:22:18.278Z,0.00
2022-08-22T02:23:18.304Z,0.00
2022-08-22T02:24:18.330Z,0.00
2022-08-22T02:25:18.358Z,0.00
2022-08-22T02:26:18.382Z,0.00
2022-08-22T02:27:18.409Z,0.00
2022-08-22T02:28:18.434Z,0.00
2022-08-22T02:29:18.463Z,0.00
2022-08-22T02:30:18.486Z,0.00
2022-08-22T02:31:18.511Z,0.00
2022-08-22T02:32:18.537Z,0.00
2022-08-22T02:33:18.568Z,0.00
2022-08-22T02:34:18.591Z,0.00
2022-08-22T02:35:18.616Z,0.00
2022-08-22T02:36:18.641Z,0.00
2022-08-22T02:37:18.667Z,0.00
2022-08-22T02:38:18.694Z,0.00
2022-08-22T02:39:18.718Z,0.00
2022-08-22T02:40:18.778Z,0.00
2022-08-22T02:41:18.770Z,0.00
2022-08-22T02:42:18.797Z,0.00
2022-08-22T02:43:18.824Z,0.00
2022-08-22T02:44:18.848Z,0.00
2022-08-22T02:45:18.874Z,0.00
2022-08-22T02:46:18.898Z,0.00
2022-08-22T02:47:18.927Z,0.00
2022-08-22T02:48:18.949Z,0.00
2022-08-22T02:49:18.979Z,0.00
2022-08-22T02:50:19.002Z,0.00
2022-08-22T02:51:19.031Z,0.00
2022-08-22T02:52:19.054Z,0.00
2022-08-22T02:53:19.081Z,0.00
2022-08-22T02:54:19.104Z,0.00
2022-08-22T02:55:19.130Z,0.00
2022-08-22T02:56:19.157Z,0.00
2022-08-22T02:57:19.183Z,0.00
2022-08-22T02:58:19.210Z,0.00
2022-08-22T02:59:19.234Z,0.00
2022-08-22T03:00:30.647Z,0.00
2022-08-22T03:01:19.335Z,0.00
2022-08-22T03:02:19.311Z,0.00
2022-08-22T03:03:19.333Z,0.00
2022-08-22T03:04:19.362Z,0.00
2022-08-22T03:05:19.388Z,0.00
2022-08-22T03:06:19.415Z,0.00
2022-08-22T03:07:19.441Z,0.00
2022-08-22T03:08:21.120Z,0.00
2022-08-22T03:09:19.496Z,0.00
2022-08-22T03:10:19.518Z,0.00
2022-08-22T03:11:19.543Z,0.00
2022-08-22T03:12:19.569Z,0.00
2022-08-22T03:13:19.595Z,0.00
2022-08-22T03:14:19.619Z,0.00
2022-08-22T03:15:19.645Z,0.00
2022-08-22T03:16:19.670Z,0.00
2022-08-22T03:17:19.697Z,0.00
2022-08-22T03:18:19.722Z,0.00
2022-08-22T03:19:19.746Z,0.00
2022-08-22T03:20:19.773Z,0.00
2022-08-22T03:21:19.802Z,0.00
2022-08-22T03:22:19.824Z,0.00
2022-08-22T03:23:19.850Z,0.00
2022-08-22T03:24:19.874Z,0.00
2022-08-22T03:25:19.903Z,0.00
2022-08-22T03:26:19.929Z,0.00
2022-08-22T03:27:32.047Z,0.00
2022-08-22T03:28:19.979Z,0.00
2022-08-22T03:29:20.004Z,0.00
2022-08-22T03:30:20.032Z,0.00
2022-08-22T03:31:20.057Z,0.00
2022-08-22T03:32:20.081Z,0.00
2022-08-22T03:33:20.106Z,0.00
2022-08-22T03:34:20.136Z,0.00
2022-08-22T03:35:20.156Z,0.00
2022-08-22T03:36:20.181Z,0.00
2022-08-22T03:37:20.212Z,0.00
2022-08-22T03:38:20.235Z,0.00
2022-08-22T03:39:20.259Z,0.00
2022-08-22T03:40:20.356Z,0.00
2022-08-22T03:41:20.312Z,0.00
2022-08-22T03:42:20.336Z,0.00
2022-08-22T03:43:20.362Z,0.00
2022-08-22T03:44:20.388Z,0.00
2022-08-22T03:45:20.415Z,0.00
2022-08-22T03:46:20.441Z,0.00
2022-08-22T03:47:20.468Z,4.00
2022-08-22T03:48:20.489Z,4.00
2022-08-22T03:49:20.516Z,4.00
2022-08-22T03:50:20.540Z,0.00
2022-08-22T03:51:20.565Z,4.00
2022-08-22T03:52:20.593Z,4.00
2022-08-22T03:53:20.615Z,4.00
2022-08-22T03:54:20.645Z,4.00
2022-08-22T03:55:20.665Z,8.00
2022-08-22T03:56:20.692Z,8.00
2022-08-22T03:57:20.718Z,8.00
2022-08-22T03:58:27.917Z,8.00
2022-08-22T03:59:20.770Z,12.00
2022-08-22T04:00:20.795Z,16.00
2022-08-22T04:01:20.884Z,20.00
2022-08-22T04:02:31.455Z,20.00
2022-08-22T04:03:20.871Z,24.00
2022-08-22T04:04:20.896Z,28.00
2022-08-22T04:05:20.930Z,32.00
2022-08-22T04:06:20.946Z,36.00
2022-08-22T04:07:31.604Z,44.00
2022-08-22T04:08:24.318Z,52.00
2022-08-22T04:09:21.025Z,60.00
2022-08-22T04:10:21.049Z,68.00
2022-08-22T04:11:21.083Z,80.00
2022-08-22T04:12:21.100Z,88.00
2022-08-22T04:13:21.127Z,100.00
2022-08-22T04:14:21.150Z,112.00
2022-08-22T04:15:21.180Z,124.00
2022-08-22T04:16:21.200Z,140.00
2022-08-22T04:17:21.226Z,160.00
2022-08-22T04:18:21.254Z,176.00
2022-08-22T04:19:21.277Z,196.00
2022-08-22T04:20:21.302Z,216.00
2022-08-22T04:21:21.328Z,236.00
2022-08-22T04:22:21.356Z,264.00
2022-08-22T04:23:21.381Z,288.00
2022-08-22T04:24:21.402Z,312.00
2022-08-22T04:25:21.435Z,344.00
2022-08-22T04:26:21.455Z,376.00
2022-08-22T04:27:21.478Z,408.00
2022-08-22T04:28:21.504Z,440.00
2022-08-22T04:29:21.532Z,476.00
2022-08-22T04:30:21.555Z,512.00
2022-08-22T04:31:21.583Z,552.00
2022-08-22T04:32:21.607Z,596.00
2022-08-22T04:33:21.634Z,636.00
2022-08-22T04:34:21.658Z,684.00
2022-08-22T04:35:21.691Z,732.00
2022-08-22T04:36:21.708Z,780.00
2022-08-22T04:37:21.732Z,828.00
2022-08-22T04:38:21.762Z,876.00
2022-08-22T04:39:21.784Z,924.00
2022-08-22T04:40:21.905Z,972.00
2022-08-22T04:41:21.836Z,1020.00
2022-08-22T04:42:33.594Z,1064.00
2022-08-22T04:43:21.944Z,1108.00
2022-08-22T04:44:21.912Z,1156.00
2022-08-22T04:45:21.935Z,1204.00
2022-08-22T04:46:21.961Z,1252.00
2022-08-22T04:47:21.986Z,1296.00
2022-08-22T04:48:22.013Z,1340.00
2022-08-22T04:49:22.037Z,1380.00
2022-08-22T04:50:22.064Z,1424.00
2022-08-22T04:51:22.088Z,1472.00
2022-08-22T04:52:22.115Z,1516.00
2022-08-22T04:53:22.140Z,1568.00
2022-08-22T04:54:22.165Z,1620.00
2022-08-22T04:55:22.190Z,1676.00
2022-08-22T04:56:22.215Z,1728.00
2022-08-22T04:57:22.242Z,1792.00
2022-08-22T04:58:22.270Z,1864.00
2022-08-22T04:59:22.293Z,1924.00
2022-08-22T05:00:22.318Z,1988.00
2022-08-22T05:01:22.427Z,2032.00
2022-08-22T05:02:22.371Z,2076.00
2022-08-22T05:03:22.405Z,2116.00
2022-08-22T05:04:22.420Z,2160.00
2022-08-22T05:05:22.447Z,2208.00
2022-08-22T05:06:22.469Z,2244.00
2022-08-22T05:07:22.497Z,2272.00
2022-08-22T05:08:22.522Z,2300.00
2022-08-22T05:09:22.550Z,2328.00
2022-08-22T05:10:22.574Z,2356.00
2022-08-22T05:11:22.599Z,2380.00
2022-08-22T05:12:22.630Z,2408.00
2022-08-22T05:13:22.651Z,2440.00
2022-08-22T05:14:22.679Z,2472.00
2022-08-22T05:15:23.333Z,2512.00
2022-08-22T05:16:22.728Z,2556.00
2022-08-22T05:17:22.756Z,2584.00
2022-08-22T05:18:22.782Z,2592.00
2022-08-22T05:19:29.597Z,2624.00
2022-08-22T05:20:22.841Z,2648.00
2022-08-22T05:21:22.861Z,2676.00
2022-08-22T05:22:22.887Z,2708.00
2022-08-22T05:23:22.909Z,2740.00
2022-08-22T05:24:22.942Z,2772.00
2022-08-22T05:25:22.967Z,2804.00
2022-08-22T05:26:22.993Z,2844.00
2022-08-22T05:27:23.016Z,2884.00
2022-08-22T05:28:23.044Z,3000.00
2022-08-22T05:29:23.069Z,3080.00
2022-08-22T05:30:23.097Z,3084.00
2022-08-22T05:31:23.223Z,3184.00
2022-08-22T05:32:23.157Z,3396.00
2022-08-22T05:33:23.180Z,3520.00
2022-08-22T05:34:23.201Z,3556.00
2022-08-22T05:35:23.228Z,3652.00
2022-08-22T05:36:23.256Z,3724.00
2022-08-22T05:37:23.290Z,3812.00
2022-08-22T05:38:23.311Z,3892.00
2022-08-22T05:39:23.711Z,3980.00
2022-08-22T05:40:23.506Z,4260.00
2022-08-22T05:41:23.387Z,4060.00
2022-08-22T05:42:23.413Z,3876.00
2022-08-22T05:43:23.436Z,3932.00
2022-08-22T05:44:23.468Z,4008.00
2022-08-22T05:45:23.497Z,4068.00
2022-08-22T05:46:27.016Z,4188.00
2022-08-22T05:47:23.547Z,4456.00
2022-08-22T05:48:23.573Z,4796.00
2022-08-22T05:49:23.597Z,5128.00
2022-08-22T05:50:23.624Z,5148.00
2022-08-22T05:51:23.653Z,4992.00
2022-08-22T05:52:23.680Z,4864.00
2022-08-22T05:53:23.707Z,4824.00
2022-08-22T05:54:33.843Z,4932.00
2022-08-22T05:55:23.758Z,5472.00
2022-08-22T05:56:23.800Z,5748.00
2022-08-22T05:57:23.814Z,5456.00
2022-08-22T05:58:23.841Z,5640.00
2022-08-22T05:59:23.869Z,6068.00
2022-08-22T06:00:23.895Z,6120.00
2022-08-22T06:01:24.004Z,6164.00
2022-08-22T06:02:23.949Z,6180.00
2022-08-22T06:03:23.977Z,5976.00
2022-08-22T06:04:24.000Z,6020.00
2022-08-22T06:05:24.028Z,6184.00
2022-08-22T06:06:24.056Z,6544.00
2022-08-22T06:07:24.083Z,6956.00
2022-08-22T06:08:24.111Z,7268.00
2022-08-22T06:09:24.136Z,7480.00
2022-08-22T06:10:24.162Z,7504.00
2022-08-22T06:11:24.190Z,7680.00
2022-08-22T06:12:24.220Z,8056.00
2022-08-22T06:13:24.716Z,7732.00
2022-08-22T06:14:24.784Z,10276.00
2022-08-22T06:15:24.299Z,9852.00
2022-08-22T06:16:24.332Z,12224.00
2022-08-22T06:17:24.355Z,9784.00
2022-08-22T06:18:24.383Z,7888.00
2022-08-22T06:19:24.409Z,8920.00
2022-08-22T06:20:24.442Z,12696.00
2022-08-22T06:21:24.481Z,8132.00
2022-08-22T06:22:24.492Z,10108.00
2022-08-22T06:23:24.520Z,13936.00
2022-08-22T06:24:24.552Z,29920.00
2022-08-22T06:25:24.579Z,28000.00
2022-08-22T06:26:24.609Z,9400.00
2022-08-22T06:27:24.636Z,20000.00
2022-08-22T06:28:24.666Z,9388.00
2022-08-22T06:29:24.697Z,28192.00
2022-08-22T06:30:24.725Z,27328.00
2022-08-22T06:31:24.755Z,24864.00
2022-08-22T06:32:44.351Z,10908.00
2022-08-22T06:33:24.811Z,10276.00
2022-08-22T06:34:24.839Z,25120.00
2022-08-22T06:35:24.870Z,26880.00
2022-08-22T06:36:32.069Z,23328.00
2022-08-22T06:38:29.395Z,12828.00
2022-08-22T06:39:28.941Z,23136.00
2022-08-22T06:41:32.969Z,10428.00
2022-08-22T06:42:33.007Z,23648.00
2022-08-22T06:44:37.487Z,17280.00
2022-08-22T06:45:37.040Z,9176.00
2022-08-22T06:47:41.069Z,9668.00
2022-08-22T06:48:41.091Z,9492.00
2022-08-22T06:50:34.571Z,19104.00
2022-08-22T06:51:34.058Z,27808.00
2022-08-22T06:53:38.100Z,29248.00
2022-08-22T06:54:38.118Z,25184.00
2022-08-22T06:58:25.330Z,8492.00
2022-08-22T06:59:24.889Z,12052.00
2022-08-22T07:01:28.964Z,7072.00
2022-08-22T07:02:28.944Z,6804.00
2022-08-22T07:04:33.441Z,6052.00
2022-08-22T07:05:32.991Z,6024.00
2022-08-22T07:07:37.023Z,5652.00
2022-08-22T07:08:39.121Z,5692.00
2022-08-22T07:10:30.529Z,5760.00
2022-08-22T07:11:30.015Z,5848.00
2022-08-22T07:13:34.508Z,5848.00
2022-08-22T07:14:34.061Z,5808.00
2022-08-22T07:16:38.092Z,5784.00
2022-08-22T07:17:40.678Z,5692.00
2022-08-22T07:19:42.608Z,5844.00
2022-08-22T07:20:42.159Z,5812.00
2022-08-22T07:22:46.199Z,5848.00
2022-08-22T07:23:49.141Z,5748.00
2022-08-22T07:25:50.714Z,5856.00
2022-08-22T07:26:50.262Z,5944.00
2022-08-22T07:28:58.349Z,5840.00
2022-08-22T07:29:54.306Z,5820.00
2022-08-22T07:31:58.335Z,5952.00
2022-08-22T07:33:21.281Z,5968.00
2022-08-22T07:35:02.846Z,6200.00
2022-08-22T07:36:02.499Z,6056.00
2022-08-22T07:38:06.997Z,6496.00
2022-08-22T07:39:06.548Z,6536.00
2022-08-22T07:41:10.585Z,6412.00
2022-08-22T07:42:10.594Z,6180.00
2022-08-22T07:44:15.088Z,6268.00
2022-08-22T07:45:14.645Z,6380.00
2022-08-22T07:47:26.358Z,6436.00
2022-08-22T07:48:25.477Z,6316.00
2022-08-22T07:50:12.182Z,6324.00
2022-08-22T07:51:11.665Z,6360.00
2022-08-22T07:53:15.769Z,6328.00
2022-08-22T07:54:15.716Z,6276.00
2022-08-22T07:56:20.207Z,6188.00
2022-08-22T07:57:19.759Z,6100.00
2022-08-22T07:59:23.811Z,5596.00
2022-08-22T08:00:23.836Z,5740.00
2022-08-22T08:02:28.321Z,5476.00
2022-08-22T08:03:27.876Z,5400.00
2022-08-22T08:05:31.915Z,5292.00
2022-08-22T08:06:31.937Z,5264.00
2022-08-22T08:08:36.439Z,5172.00
2022-08-22T08:09:35.976Z,5160.00
2022-08-22T08:11:40.007Z,5084.00
2022-08-22T08:12:40.025Z,5056.00
2022-08-22T08:14:44.522Z,4996.00
2022-08-22T08:15:44.073Z,4964.00
2022-08-22T08:17:48.103Z,4908.00
2022-08-22T08:18:48.124Z,4892.00
2022-08-22T08:20:41.106Z,4896.00
2022-08-22T08:21:41.101Z,4896.00
2022-08-22T08:23:45.130Z,4872.00
2022-08-22T08:24:45.687Z,4880.00
2022-08-22T08:26:49.640Z,4884.00
2022-08-22T08:27:50.462Z,4884.00
2022-08-22T08:29:53.222Z,4836.00
2022-08-22T08:30:53.244Z,4816.00
2022-08-22T08:33:24.318Z,4812.00
2022-08-22T08:33:57.292Z,4812.00
2022-08-22T08:36:03.434Z,4792.00
2022-08-22T08:37:01.342Z,4772.00
2022-08-22T08:39:05.844Z,4696.00
2022-08-22T08:40:05.475Z,4652.00
2022-08-22T08:42:09.438Z,4588.00
2022-08-22T08:43:10.879Z,4572.00
2022-08-22T08:45:13.979Z,4552.00
2022-08-22T08:46:13.507Z,4540.00
2022-08-22T08:48:17.531Z,4532.00
2022-08-22T08:49:17.556Z,4536.00
2022-08-22T08:51:23.441Z,4548.00
2022-08-22T08:52:21.611Z,4560.00
2022-08-22T08:54:26.125Z,4612.00
2022-08-22T08:55:25.676Z,4664.00
2022-08-22T08:57:29.731Z,4800.00
2022-08-22T08:58:29.760Z,4852.00
2022-08-22T09:00:23.255Z,4928.00
2022-08-22T09:01:27.513Z,4936.00
2022-08-22T09:03:30.979Z,4936.00
2022-08-22T09:04:26.784Z,4920.00
2022-08-22T09:06:31.281Z,4892.00
2022-08-22T09:07:31.343Z,4884.00
2022-08-22T09:09:34.876Z,4876.00
2022-08-22T09:10:34.893Z,4868.00
2022-08-22T09:12:41.669Z,4840.00
2022-08-22T09:13:40.858Z,4812.00
2022-08-22T09:15:42.991Z,4784.00
2022-08-22T09:16:46.307Z,4772.00
2022-08-22T09:18:47.511Z,4764.00
2022-08-22T09:19:47.066Z,4764.00
2022-08-22T09:21:51.096Z,4808.00
2022-08-22T09:22:51.126Z,4848.00
2022-08-22T09:24:56.114Z,5028.00
2022-08-22T09:25:55.174Z,5148.00
2022-08-22T09:27:59.326Z,5384.00
2022-08-22T09:28:59.227Z,5504.00
2022-08-22T09:31:03.724Z,5700.00
2022-08-22T09:32:03.283Z,5828.00
2022-08-22T09:34:07.341Z,6096.00
2022-08-22T09:35:07.356Z,6444.00
2022-08-22T09:37:14.208Z,6720.00
2022-08-22T09:38:11.410Z,6936.00
2022-08-22T09:40:04.385Z,7088.00
2022-08-22T09:41:04.391Z,7188.00
2022-08-22T09:43:08.893Z,7484.00
2022-08-22T09:44:08.459Z,7752.00
2022-08-22T09:45:08.479Z,8080.00
2022-08-22T09:46:08.511Z,8492.00
2022-08-22T09:47:08.541Z,9024.00
2022-08-22T09:48:08.569Z,9692.00
2022-08-22T09:49:08.606Z,10496.00
2022-08-22T09:50:08.638Z,11320.00
2022-08-22T09:51:31.822Z,11940.00
2022-08-22T09:52:15.218Z,12476.00
2022-08-22T09:53:08.733Z,12840.00
2022-08-22T09:54:08.778Z,13048.00
2022-08-22T09:55:08.830Z,13176.00
2022-08-22T09:56:11.560Z,13292.00
2022-08-22T09:57:08.864Z,13384.00
2022-08-22T09:58:11.442Z,13476.00
2022-08-22T09:59:09.788Z,13456.00
2022-08-22T10:00:08.963Z,13180.00
2022-08-22T10:01:09.055Z,12936.00
2022-08-22T10:02:15.474Z,12752.00
2022-08-22T10:03:09.061Z,12620.00
2022-08-22T10:04:09.109Z,12588.00
2022-08-22T10:05:09.136Z,12656.00
2022-08-22T10:06:09.276Z,12748.00
2022-08-22T10:07:11.914Z,12856.00
2022-08-22T10:08:11.443Z,12984.00
2022-08-22T10:09:09.331Z,13168.00
2022-08-22T10:10:09.293Z,13420.00
2022-08-22T10:11:09.327Z,13572.00
2022-08-22T10:12:12.822Z,13816.00
2022-08-22T10:13:10.432Z,13992.00
2022-08-22T10:14:09.428Z,14080.00
2022-08-22T10:15:09.461Z,14200.00
2022-08-22T10:16:09.492Z,14328.00
2022-08-22T10:17:09.528Z,14404.00
2022-08-22T10:18:10.433Z,14484.00
2022-08-22T10:19:09.592Z,14536.00
2022-08-22T10:20:09.624Z,14556.00
2022-08-22T10:21:09.658Z,14524.00
2022-08-22T10:22:09.693Z,14408.00
2022-08-22T10:23:09.729Z,14280.00
2022-08-22T10:24:09.758Z,14168.00
2022-08-22T10:25:10.326Z,14112.00
2022-08-22T10:26:09.830Z,14032.00
2022-08-22T10:27:09.862Z,13980.00
2022-08-22T10:28:10.557Z,13952.00
2022-08-22T10:29:09.929Z,13800.00
2022-08-22T10:30:09.961Z,13596.00
2022-08-22T10:31:09.998Z,13472.00
2022-08-22T10:32:13.959Z,13368.00
2022-08-22T10:33:12.063Z,13268.00
2022-08-22T10:34:10.097Z,13176.00
2022-08-22T10:35:10.125Z,13040.00
2022-08-22T10:36:12.039Z,12844.00
2022-08-22T10:37:10.255Z,12624.00
2022-08-22T10:38:10.705Z,12384.00
2022-08-22T10:39:11.781Z,12192.00
2022-08-22T10:40:10.377Z,12012.00
2022-08-22T10:41:10.336Z,11796.00
2022-08-22T10:42:10.367Z,11556.00
2022-08-22T10:43:10.411Z,11232.00
2022-08-22T10:44:10.933Z,10928.00
2022-08-22T10:45:10.466Z,10692.00
2022-08-22T10:46:12.532Z,10340.00
2022-08-22T10:47:10.533Z,9992.00
2022-08-22T10:48:10.579Z,9740.00
2022-08-22T10:49:10.607Z,9368.00
2022-08-22T10:50:10.860Z,9032.00
2022-08-22T10:51:10.669Z,8600.00
2022-08-22T10:52:15.567Z,8256.00
2022-08-22T10:53:10.758Z,8028.00
2022-08-22T10:54:10.782Z,7792.00
2022-08-22T10:55:10.811Z,7568.00
2022-08-22T10:56:10.843Z,7264.00
2022-08-22T10:57:10.875Z,6960.00
2022-08-22T10:58:10.913Z,6644.00
2022-08-22T10:59:10.942Z,6360.00
2022-08-22T11:00:10.974Z,6072.00
2022-08-22T11:01:38.539Z,5808.00
2022-08-22T11:02:11.045Z,5556.00
2022-08-22T11:03:14.514Z,5324.00
2022-08-22T11:04:12.277Z,5132.00
2022-08-22T11:05:11.147Z,4980.00
2022-08-22T11:06:12.788Z,4860.00
2022-08-22T11:07:11.208Z,4780.00
2022-08-22T11:08:11.246Z,4712.00
2022-08-22T11:09:11.284Z,4648.00
2022-08-22T11:10:11.316Z,4596.00
2022-08-22T11:11:11.347Z,4544.00
2022-08-22T11:12:11.381Z,4504.00
2022-08-22T11:13:11.416Z,4460.00
2022-08-22T11:14:11.455Z,4420.00
2022-08-22T11:15:11.481Z,4388.00
2022-08-22T11:16:11.515Z,4360.00
2022-08-22T11:17:27.942Z,4336.00
2022-08-22T11:18:13.018Z,4324.00
2022-08-22T11:19:15.047Z,4316.00
2022-08-22T11:20:11.652Z,4312.00
2022-08-22T11:21:11.682Z,4308.00
2022-08-22T11:22:11.716Z,4308.00
2022-08-22T11:23:12.236Z,4316.00
2022-08-22T11:24:19.975Z,4316.00
2022-08-22T11:25:11.816Z,4316.00
2022-08-22T11:26:11.848Z,4324.00
2022-08-22T11:27:13.008Z,4344.00
2022-08-22T11:28:11.920Z,4352.00
2022-08-22T11:29:14.136Z,4356.00
2022-08-22T11:30:18.307Z,4360.00
2022-08-22T11:31:12.018Z,4360.00
2022-08-22T11:32:12.075Z,4352.00
2022-08-22T11:33:13.669Z,4352.00
2022-08-22T11:34:12.120Z,4344.00
2022-08-22T11:35:12.151Z,4324.00
2022-08-22T11:36:12.199Z,4304.00
2022-08-22T11:37:12.315Z,4292.00
2022-08-22T11:38:12.264Z,4280.00
2022-08-22T11:39:18.006Z,4248.00
2022-08-22T11:40:12.362Z,4216.00
2022-08-22T11:41:12.352Z,4176.00
2022-08-22T11:42:12.387Z,4140.00
2022-08-22T11:43:18.251Z,4100.00
2022-08-22T11:44:12.452Z,4072.00
2022-08-22T11:45:16.257Z,4044.00
2022-08-22T11:46:12.524Z,4024.00
2022-08-22T11:47:12.554Z,4004.00
2022-08-22T11:48:12.587Z,3984.00
2022-08-22T11:49:12.629Z,3964.00
2022-08-22T11:50:13.543Z,3948.00
2022-08-22T11:51:13.546Z,3924.00
2022-08-22T11:52:12.727Z,3908.00
2022-08-22T11:53:12.772Z,3896.00
2022-08-22T11:54:12.788Z,3900.00
2022-08-22T11:55:12.823Z,3912.00
2022-08-22T11:56:12.854Z,3924.00
2022-08-22T11:57:12.887Z,3908.00
2022-08-22T11:58:12.922Z,3848.00
2022-08-22T11:59:12.961Z,3772.00
2022-08-22T12:00:12.991Z,3732.00
2022-08-22T12:01:17.240Z,3712.00
2022-08-22T12:02:13.105Z,3692.00
2022-08-22T12:03:13.567Z,3664.00
2022-08-22T12:04:13.126Z,3644.00
2022-08-22T12:05:20.085Z,3624.00
2022-08-22T12:06:13.187Z,3592.00
2022-08-22T12:07:13.225Z,3564.00
2022-08-22T12:08:13.255Z,3584.00
2022-08-22T12:09:13.306Z,3580.00
2022-08-22T12:10:13.745Z,3560.00
2022-08-22T12:11:13.356Z,3516.00
2022-08-22T12:12:13.391Z,3508.00
2022-08-22T12:13:13.423Z,3504.00
2022-08-22T12:14:13.455Z,3492.00
2022-08-22T12:15:13.487Z,3472.00
2022-08-22T12:16:13.535Z,3460.00
2022-08-22T12:17:13.609Z,3452.00
2022-08-22T12:18:20.045Z,3444.00
2022-08-22T12:19:13.615Z,3436.00
2022-08-22T12:20:16.709Z,3440.00
2022-08-22T12:21:13.688Z,3452.00
2022-08-22T12:22:13.722Z,3456.00
2022-08-22T12:23:13.755Z,3460.00
2022-08-22T12:24:19.236Z,3460.00
2022-08-22T12:25:13.822Z,3460.00
2022-08-22T12:26:13.861Z,3464.00
2022-08-22T12:27:13.891Z,3476.00
2022-08-22T12:28:13.932Z,3484.00
2022-08-22T12:29:15.427Z,3488.00
2022-08-22T12:30:14.396Z,3492.00
2022-08-22T12:31:14.016Z,3516.00
2022-08-22T12:32:14.055Z,3572.00
2022-08-22T12:33:20.755Z,3672.00
2022-08-22T12:34:14.122Z,3840.00
2022-08-22T12:35:14.560Z,3992.00
2022-08-22T12:36:18.340Z,4048.00
2022-08-22T12:37:14.222Z,4068.00
2022-08-22T12:38:28.166Z,4200.00
2022-08-22T12:39:14.287Z,4424.00
2022-08-22T12:40:14.489Z,4684.00
2022-08-22T12:41:14.351Z,4976.00
2022-08-22T12:42:14.387Z,5208.00
2022-08-22T12:43:14.419Z,5312.00
2022-08-22T12:44:16.996Z,5292.00
2022-08-22T12:45:14.486Z,5244.00
2022-08-22T12:46:14.525Z,5168.00
2022-08-22T12:47:14.555Z,5204.00
2022-08-22T12:48:14.588Z,5480.00
2022-08-22T12:49:14.624Z,5936.00
2022-08-22T12:50:14.657Z,6388.00
2022-08-22T12:51:17.762Z,6708.00
2022-08-22T12:52:14.720Z,6832.00
2022-08-22T12:53:18.262Z,6744.00
2022-08-22T12:54:14.793Z,6688.00
2022-08-22T12:55:14.823Z,6848.00
2022-08-22T12:56:14.857Z,7248.00
2022-08-22T12:57:23.711Z,7632.00
2022-08-22T12:58:14.925Z,7816.00
2022-08-22T12:59:14.960Z,7928.00
2022-08-22T13:00:14.990Z,8096.00
2022-08-22T13:01:15.103Z,8312.00
2022-08-22T13:02:15.062Z,8556.00
2022-08-22T13:03:15.095Z,8820.00
2022-08-22T13:04:32.390Z,9104.00
2022-08-22T13:05:19.646Z,9332.00
2022-08-22T13:06:15.264Z,9472.00
2022-08-22T13:07:15.231Z,9656.00
2022-08-22T13:08:17.384Z,9736.00
2022-08-22T13:09:15.301Z,9820.00
2022-08-22T13:10:17.479Z,10092.00
2022-08-22T13:11:23.352Z,10252.00
2022-08-22T13:12:15.406Z,10568.00
2022-08-22T13:13:15.439Z,10848.00
2022-08-22T13:14:19.546Z,11092.00
2022-08-22T13:15:15.509Z,11272.00
2022-08-22T13:16:15.563Z,11320.00
2022-08-22T13:17:24.168Z,11336.00
2022-08-22T13:18:29.938Z,11204.00
2022-08-22T13:19:15.647Z,11184.00
2022-08-22T13:20:15.681Z,11132.00
2022-08-22T13:21:15.714Z,11024.00
2022-08-22T13:22:15.754Z,10752.00
2022-08-22T13:23:15.784Z,10488.00
2022-08-22T13:24:16.955Z,10304.00
2022-08-22T13:25:15.853Z,10328.00
2022-08-22T13:26:16.397Z,10544.00
2022-08-22T13:27:15.924Z,11024.00
2022-08-22T13:28:15.964Z,11076.00
2022-08-22T13:29:25.769Z,11372.00
2022-08-22T13:30:16.032Z,11568.00
2022-08-22T13:31:16.078Z,11528.00
2022-08-22T13:32:16.100Z,11876.00
2022-08-22T13:33:16.135Z,11944.00
2022-08-22T13:34:16.172Z,11908.00
2022-08-22T13:35:16.207Z,11992.00
2022-08-22T13:36:16.241Z,12120.00
2022-08-22T13:37:16.275Z,12272.00
2022-08-22T13:38:16.313Z,12336.00
2022-08-22T13:39:16.341Z,12268.00
2022-08-22T13:40:16.411Z,12180.00
2022-08-22T13:41:16.418Z,12000.00